sensor_id;sensor_type;location;lat;lon;timestamp;P1;durP1;ratioP1;P2;durP2;ratioP2
64595;SDS011;51003;51.628;6.670;2023-05-01T00:00:14;2.73;;;2.30;;
64595;SDS011;51003;51.628;6.670;2023-05-01T00:02:40;3.70;;;2.53;;
64595;SDS011;51003;51.628;6.670;2023-05-01T00:05:06;4.90;;;2.50;;
64595;SDS011;51003;51.628;6.670;2023-05-01T00:07:32;3.97;;;2.70;;
64595;SDS011;51003;51.628;6.670;2023-05-01T00:09:59;2.67;;;2.47;;
64595;SDS011;51003;51.628;6.670;2023-05-01T00:12:24;2.30;;;2.10;;
64595;SDS011;51003;51.628;6.670;2023-05-01T00:14:50;6.00;;;2.60;;
64595;SDS011;51003;51.628;6.670;2023-05-01T00:17:16;4.27;;;2.70;;
64595;SDS011;51003;51.628;6.670;2023-05-01T00:19:41;3.87;;;2.80;;
64595;SDS011;51003;51.628;6.670;2023-05-01T00:22:06;5.00;;;3.17;;
64595;SDS011;51003;51.628;6.670;2023-05-01T00:24:32;4.07;;;2.40;;
64595;SDS011;51003;51.628;6.670;2023-05-01T00:26:57;2.90;;;2.60;;
64595;SDS011;51003;51.628;6.670;2023-05-01T00:29:23;5.13;;;2.40;;
64595;SDS011;51003;51.628;6.670;2023-05-01T00:31:48;5.33;;;2.40;;
64595;SDS011;51003;51.628;6.670;2023-05-01T00:34:14;2.83;;;2.47;;
64595;SDS011;51003;51.628;6.670;2023-05-01T00:36:40;4.30;;;2.70;;
64595;SDS011;51003;51.628;6.670;2023-05-01T00:39:06;4.67;;;2.63;;
64595;SDS011;51003;51.628;6.670;2023-05-01T00:41:35;2.73;;;2.50;;
64595;SDS011;51003;51.628;6.670;2023-05-01T00:44:00;3.43;;;2.53;;
64595;SDS011;51003;51.628;6.670;2023-05-01T00:46:26;7.37;;;2.60;;
64595;SDS011;51003;51.628;6.670;2023-05-01T00:48:52;3.50;;;2.70;;
64595;SDS011;51003;51.628;6.670;2023-05-01T00:51:18;3.93;;;2.60;;
64595;SDS011;51003;51.628;6.670;2023-05-01T00:53:44;5.27;;;2.40;;
64595;SDS011;51003;51.628;6.670;2023-05-01T00:56:10;2.30;;;2.20;;
64595;SDS011;51003;51.628;6.670;2023-05-01T00:58:36;3.47;;;2.80;;
64595;SDS011;51003;51.628;6.670;2023-05-01T01:01:02;4.47;;;2.70;;
64595;SDS011;51003;51.628;6.670;2023-05-01T01:03:29;5.93;;;2.53;;
64595;SDS011;51003;51.628;6.670;2023-05-01T01:11:37;4.13;;;2.53;;
64595;SDS011;51003;51.628;6.670;2023-05-01T01:23:19;2.63;;;2.37;;
64595;SDS011;51003;51.628;6.670;2023-05-01T01:34:07;2.83;;;2.63;;
64595;SDS011;51003;51.628;6.670;2023-05-01T01:37:10;3.47;;;2.50;;
64595;SDS011;51003;51.628;6.670;2023-05-01T01:42:14;2.47;;;2.27;;
64595;SDS011;51003;51.628;6.670;2023-05-01T01:44:51;4.00;;;2.60;;
64595;SDS011;51003;51.628;6.670;2023-05-01T01:47:19;7.70;;;2.90;;
64595;SDS011;51003;51.628;6.670;2023-05-01T01:49:50;4.60;;;3.00;;
64595;SDS011;51003;51.628;6.670;2023-05-01T01:52:16;5.00;;;2.97;;
64595;SDS011;51003;51.628;6.670;2023-05-01T01:54:57;4.50;;;3.10;;
64595;SDS011;51003;51.628;6.670;2023-05-01T01:57:29;6.90;;;3.00;;
64595;SDS011;51003;51.628;6.670;2023-05-01T01:59:55;3.43;;;2.80;;
64595;SDS011;51003;51.628;6.670;2023-05-01T02:02:20;6.20;;;3.20;;
64595;SDS011;51003;51.628;6.670;2023-05-01T02:04:47;3.27;;;2.87;;
64595;SDS011;51003;51.628;6.670;2023-05-01T02:07:13;4.00;;;2.70;;
64595;SDS011;51003;51.628;6.670;2023-05-01T02:09:39;3.00;;;2.50;;
64595;SDS011;51003;51.628;6.670;2023-05-01T02:12:06;2.87;;;2.67;;
64595;SDS011;51003;51.628;6.670;2023-05-01T02:14:32;3.50;;;3.20;;
64595;SDS011;51003;51.628;6.670;2023-05-01T02:16:58;7.03;;;3.13;;
64595;SDS011;51003;51.628;6.670;2023-05-01T02:19:24;6.63;;;3.10;;
64595;SDS011;51003;51.628;6.670;2023-05-01T02:21:51;4.63;;;2.87;;
64595;SDS011;51003;51.628;6.670;2023-05-01T02:24:19;5.23;;;3.40;;
64595;SDS011;51003;51.628;6.670;2023-05-01T02:26:48;4.60;;;2.90;;
64595;SDS011;51003;51.628;6.670;2023-05-01T02:29:19;3.70;;;2.83;;
64595;SDS011;51003;51.628;6.670;2023-05-01T02:31:44;4.73;;;3.07;;
64595;SDS011;51003;51.628;6.670;2023-05-01T02:34:10;4.97;;;3.33;;
64595;SDS011;51003;51.628;6.670;2023-05-01T02:36:36;5.20;;;3.47;;
64595;SDS011;51003;51.628;6.670;2023-05-01T02:39:02;4.97;;;3.23;;
64595;SDS011;51003;51.628;6.670;2023-05-01T02:41:27;4.37;;;3.40;;
64595;SDS011;51003;51.628;6.670;2023-05-01T02:43:55;5.87;;;3.27;;
64595;SDS011;51003;51.628;6.670;2023-05-01T02:46:24;6.90;;;3.50;;
64595;SDS011;51003;51.628;6.670;2023-05-01T02:48:51;3.20;;;2.83;;
64595;SDS011;51003;51.628;6.670;2023-05-01T02:51:17;6.00;;;3.50;;
64595;SDS011;51003;51.628;6.670;2023-05-01T02:53:44;5.47;;;3.90;;
64595;SDS011;51003;51.628;6.670;2023-05-01T02:56:10;6.13;;;3.70;;
64595;SDS011;51003;51.628;6.670;2023-05-01T02:58:36;6.40;;;3.60;;
64595;SDS011;51003;51.628;6.670;2023-05-01T03:01:02;5.43;;;3.47;;
64595;SDS011;51003;51.628;6.670;2023-05-01T03:03:27;3.73;;;3.43;;
64595;SDS011;51003;51.628;6.670;2023-05-01T03:05:53;4.03;;;3.53;;
64595;SDS011;51003;51.628;6.670;2023-05-01T03:08:19;8.30;;;3.70;;
64595;SDS011;51003;51.628;6.670;2023-05-01T03:10:45;6.10;;;4.20;;
64595;SDS011;51003;51.628;6.670;2023-05-01T03:13:11;5.37;;;3.37;;
64595;SDS011;51003;51.628;6.670;2023-05-01T03:15:37;4.80;;;3.23;;
64595;SDS011;51003;51.628;6.670;2023-05-01T03:18:03;4.80;;;3.90;;
64595;SDS011;51003;51.628;6.670;2023-05-01T03:20:28;6.93;;;3.80;;
64595;SDS011;51003;51.628;6.670;2023-05-01T03:22:55;4.53;;;3.83;;
64595;SDS011;51003;51.628;6.670;2023-05-01T03:25:21;4.00;;;3.60;;
64595;SDS011;51003;51.628;6.670;2023-05-01T03:27:47;4.30;;;3.40;;
64595;SDS011;51003;51.628;6.670;2023-05-01T03:30:14;3.90;;;3.03;;
64595;SDS011;51003;51.628;6.670;2023-05-01T03:32:40;6.30;;;3.67;;
64595;SDS011;51003;51.628;6.670;2023-05-01T03:35:05;5.83;;;3.50;;
64595;SDS011;51003;51.628;6.670;2023-05-01T03:37:31;4.03;;;3.63;;
64595;SDS011;51003;51.628;6.670;2023-05-01T03:39:57;4.10;;;3.10;;
64595;SDS011;51003;51.628;6.670;2023-05-01T03:42:23;5.60;;;3.70;;
64595;SDS011;51003;51.628;6.670;2023-05-01T03:44:49;9.17;;;4.00;;
64595;SDS011;51003;51.628;6.670;2023-05-01T03:47:15;4.80;;;3.97;;
64595;SDS011;51003;51.628;6.670;2023-05-01T03:49:41;4.47;;;3.67;;
64595;SDS011;51003;51.628;6.670;2023-05-01T03:52:07;6.13;;;3.87;;
64595;SDS011;51003;51.628;6.670;2023-05-01T03:54:33;5.83;;;3.73;;
64595;SDS011;51003;51.628;6.670;2023-05-01T03:56:59;4.43;;;3.47;;
64595;SDS011;51003;51.628;6.670;2023-05-01T03:59:25;6.40;;;4.00;;
64595;SDS011;51003;51.628;6.670;2023-05-01T04:01:51;5.07;;;3.60;;
64595;SDS011;51003;51.628;6.670;2023-05-01T04:04:17;4.03;;;3.43;;
64595;SDS011;51003;51.628;6.670;2023-05-01T04:06:42;5.43;;;3.70;;
64595;SDS011;51003;51.628;6.670;2023-05-01T04:09:08;7.60;;;4.17;;
64595;SDS011;51003;51.628;6.670;2023-05-01T04:11:34;6.30;;;4.10;;
64595;SDS011;51003;51.628;6.670;2023-05-01T04:13:59;6.60;;;3.67;;
64595;SDS011;51003;51.628;6.670;2023-05-01T04:16:25;6.20;;;3.80;;
64595;SDS011;51003;51.628;6.670;2023-05-01T04:18:51;7.77;;;3.73;;
64595;SDS011;51003;51.628;6.670;2023-05-01T04:21:17;7.17;;;4.13;;
64595;SDS011;51003;51.628;6.670;2023-05-01T04:23:42;6.07;;;4.03;;
64595;SDS011;51003;51.628;6.670;2023-05-01T04:26:08;5.00;;;4.07;;
64595;SDS011;51003;51.628;6.670;2023-05-01T04:28:33;4.77;;;4.00;;
64595;SDS011;51003;51.628;6.670;2023-05-01T04:30:59;4.93;;;3.87;;
64595;SDS011;51003;51.628;6.670;2023-05-01T04:33:24;5.80;;;4.30;;
64595;SDS011;51003;51.628;6.670;2023-05-01T04:35:52;7.20;;;4.23;;
64595;SDS011;51003;51.628;6.670;2023-05-01T04:38:17;5.90;;;4.30;;
64595;SDS011;51003;51.628;6.670;2023-05-01T04:40:43;6.03;;;3.97;;
64595;SDS011;51003;51.628;6.670;2023-05-01T04:43:08;6.83;;;5.03;;
64595;SDS011;51003;51.628;6.670;2023-05-01T04:45:33;10.20;;;4.47;;
64595;SDS011;51003;51.628;6.670;2023-05-01T04:47:59;5.57;;;4.03;;
64595;SDS011;51003;51.628;6.670;2023-05-01T04:50:24;4.83;;;4.03;;
64595;SDS011;51003;51.628;6.670;2023-05-01T04:52:50;7.30;;;4.17;;
64595;SDS011;51003;51.628;6.670;2023-05-01T04:55:16;13.20;;;4.20;;
64595;SDS011;51003;51.628;6.670;2023-05-01T04:57:42;7.53;;;3.90;;
64595;SDS011;51003;51.628;6.670;2023-05-01T05:00:08;10.60;;;4.13;;
64595;SDS011;51003;51.628;6.670;2023-05-01T05:02:35;8.23;;;4.70;;
64595;SDS011;51003;51.628;6.670;2023-05-01T05:05:01;4.63;;;3.83;;
64595;SDS011;51003;51.628;6.670;2023-05-01T05:07:26;6.00;;;4.10;;
64595;SDS011;51003;51.628;6.670;2023-05-01T05:09:52;4.93;;;3.87;;
64595;SDS011;51003;51.628;6.670;2023-05-01T05:12:18;7.03;;;4.60;;
64595;SDS011;51003;51.628;6.670;2023-05-01T05:14:44;13.70;;;4.40;;
64595;SDS011;51003;51.628;6.670;2023-05-01T05:17:11;7.23;;;4.33;;
64595;SDS011;51003;51.628;6.670;2023-05-01T05:19:37;7.30;;;4.30;;
64595;SDS011;51003;51.628;6.670;2023-05-01T05:22:03;5.87;;;4.30;;
64595;SDS011;51003;51.628;6.670;2023-05-01T05:24:29;7.93;;;4.33;;
64595;SDS011;51003;51.628;6.670;2023-05-01T05:26:55;5.80;;;4.10;;
64595;SDS011;51003;51.628;6.670;2023-05-01T05:29:21;6.77;;;4.60;;
64595;SDS011;51003;51.628;6.670;2023-05-01T05:31:47;6.87;;;4.67;;
64595;SDS011;51003;51.628;6.670;2023-05-01T05:34:13;8.00;;;4.50;;
64595;SDS011;51003;51.628;6.670;2023-05-01T05:36:39;7.17;;;4.60;;
64595;SDS011;51003;51.628;6.670;2023-05-01T05:39:04;4.87;;;4.27;;
64595;SDS011;51003;51.628;6.670;2023-05-01T05:41:30;5.97;;;4.47;;
64595;SDS011;51003;51.628;6.670;2023-05-01T05:43:56;5.50;;;4.90;;
64595;SDS011;51003;51.628;6.670;2023-05-01T05:46:22;5.30;;;4.40;;
64595;SDS011;51003;51.628;6.670;2023-05-01T05:48:48;11.20;;;4.50;;
64595;SDS011;51003;51.628;6.670;2023-05-01T05:51:13;7.53;;;5.00;;
64595;SDS011;51003;51.628;6.670;2023-05-01T05:53:39;6.80;;;4.43;;
64595;SDS011;51003;51.628;6.670;2023-05-01T05:56:05;7.13;;;4.93;;
64595;SDS011;51003;51.628;6.670;2023-05-01T05:58:32;5.50;;;4.37;;
64595;SDS011;51003;51.628;6.670;2023-05-01T06:00:57;6.30;;;4.70;;
64595;SDS011;51003;51.628;6.670;2023-05-01T06:03:23;5.47;;;4.33;;
64595;SDS011;51003;51.628;6.670;2023-05-01T06:05:48;7.63;;;4.77;;
64595;SDS011;51003;51.628;6.670;2023-05-01T06:08:14;10.27;;;5.10;;
64595;SDS011;51003;51.628;6.670;2023-05-01T06:10:43;8.70;;;4.73;;
64595;SDS011;51003;51.628;6.670;2023-05-01T06:13:09;12.60;;;4.83;;
64595;SDS011;51003;51.628;6.670;2023-05-01T06:15:35;11.13;;;5.20;;
64595;SDS011;51003;51.628;6.670;2023-05-01T06:18:01;6.33;;;4.80;;
64595;SDS011;51003;51.628;6.670;2023-05-01T06:20:26;6.40;;;4.53;;
64595;SDS011;51003;51.628;6.670;2023-05-01T06:22:52;5.40;;;4.30;;
64595;SDS011;51003;51.628;6.670;2023-05-01T06:25:17;8.07;;;4.37;;
64595;SDS011;51003;51.628;6.670;2023-05-01T06:27:43;4.60;;;4.10;;
64595;SDS011;51003;51.628;6.670;2023-05-01T06:30:08;7.50;;;4.40;;
64595;SDS011;51003;51.628;6.670;2023-05-01T06:32:34;12.07;;;4.50;;
64595;SDS011;51003;51.628;6.670;2023-05-01T06:35:00;7.43;;;4.20;;
64595;SDS011;51003;51.628;6.670;2023-05-01T06:37:25;6.90;;;4.03;;
64595;SDS011;51003;51.628;6.670;2023-05-01T06:39:50;6.40;;;4.43;;
64595;SDS011;51003;51.628;6.670;2023-05-01T06:42:16;6.87;;;3.93;;
64595;SDS011;51003;51.628;6.670;2023-05-01T06:44:41;8.07;;;3.90;;
64595;SDS011;51003;51.628;6.670;2023-05-01T06:47:07;7.87;;;4.83;;
64595;SDS011;51003;51.628;6.670;2023-05-01T06:49:32;5.60;;;4.00;;
64595;SDS011;51003;51.628;6.670;2023-05-01T06:51:58;6.40;;;3.67;;
64595;SDS011;51003;51.628;6.670;2023-05-01T06:54:23;5.83;;;4.30;;
64595;SDS011;51003;51.628;6.670;2023-05-01T06:56:50;6.57;;;4.20;;
64595;SDS011;51003;51.628;6.670;2023-05-01T06:59:16;5.73;;;4.10;;
64595;SDS011;51003;51.628;6.670;2023-05-01T07:01:41;7.43;;;4.63;;
64595;SDS011;51003;51.628;6.670;2023-05-01T07:04:07;4.83;;;3.90;;
64595;SDS011;51003;51.628;6.670;2023-05-01T07:06:32;5.30;;;4.17;;
64595;SDS011;51003;51.628;6.670;2023-05-01T07:08:57;7.50;;;4.03;;
64595;SDS011;51003;51.628;6.670;2023-05-01T07:11:23;6.77;;;4.23;;
64595;SDS011;51003;51.628;6.670;2023-05-01T07:13:50;5.00;;;3.73;;
64595;SDS011;51003;51.628;6.670;2023-05-01T07:16:16;6.43;;;3.93;;
64595;SDS011;51003;51.628;6.670;2023-05-01T07:18:41;11.47;;;4.70;;
64595;SDS011;51003;51.628;6.670;2023-05-01T07:21:07;6.47;;;4.30;;
64595;SDS011;51003;51.628;6.670;2023-05-01T07:23:35;7.97;;;4.33;;
64595;SDS011;51003;51.628;6.670;2023-05-01T07:26:01;8.53;;;3.90;;
64595;SDS011;51003;51.628;6.670;2023-05-01T07:28:26;4.67;;;3.77;;
64595;SDS011;51003;51.628;6.670;2023-05-01T07:30:52;5.40;;;4.27;;
64595;SDS011;51003;51.628;6.670;2023-05-01T07:33:17;10.77;;;3.93;;
64595;SDS011;51003;51.628;6.670;2023-05-01T07:35:42;5.40;;;4.20;;
64595;SDS011;51003;51.628;6.670;2023-05-01T07:38:08;9.60;;;4.40;;
64595;SDS011;51003;51.628;6.670;2023-05-01T07:40:33;7.03;;;4.07;;
64595;SDS011;51003;51.628;6.670;2023-05-01T07:42:59;9.00;;;3.90;;
64595;SDS011;51003;51.628;6.670;2023-05-01T07:45:25;5.20;;;3.43;;
64595;SDS011;51003;51.628;6.670;2023-05-01T07:47:50;5.47;;;3.40;;
64595;SDS011;51003;51.628;6.670;2023-05-01T07:50:16;9.57;;;3.67;;
64595;SDS011;51003;51.628;6.670;2023-05-01T07:52:41;5.77;;;3.60;;
64595;SDS011;51003;51.628;6.670;2023-05-01T07:55:07;5.47;;;3.33;;
64595;SDS011;51003;51.628;6.670;2023-05-01T07:57:33;7.30;;;3.50;;
64595;SDS011;51003;51.628;6.670;2023-05-01T07:59:59;5.70;;;3.43;;
64595;SDS011;51003;51.628;6.670;2023-05-01T08:02:25;6.40;;;3.40;;
64595;SDS011;51003;51.628;6.670;2023-05-01T08:04:50;4.13;;;3.37;;
64595;SDS011;51003;51.628;6.670;2023-05-01T08:07:16;6.67;;;3.60;;
64595;SDS011;51003;51.628;6.670;2023-05-01T08:09:41;6.67;;;3.77;;
64595;SDS011;51003;51.628;6.670;2023-05-01T08:12:07;5.83;;;3.67;;
64595;SDS011;51003;51.628;6.670;2023-05-01T08:14:32;6.10;;;3.90;;
64595;SDS011;51003;51.628;6.670;2023-05-01T08:16:57;9.43;;;3.70;;
64595;SDS011;51003;51.628;6.670;2023-05-01T08:19:23;4.97;;;3.70;;
64595;SDS011;51003;51.628;6.670;2023-05-01T08:21:50;6.03;;;3.70;;
64595;SDS011;51003;51.628;6.670;2023-05-01T08:24:15;7.10;;;4.30;;
64595;SDS011;51003;51.628;6.670;2023-05-01T08:26:41;5.20;;;3.50;;
64595;SDS011;51003;51.628;6.670;2023-05-01T08:29:06;5.00;;;3.87;;
64595;SDS011;51003;51.628;6.670;2023-05-01T08:31:31;7.40;;;3.47;;
64595;SDS011;51003;51.628;6.670;2023-05-01T08:33:57;4.80;;;4.20;;
64595;SDS011;51003;51.628;6.670;2023-05-01T08:36:22;6.87;;;4.00;;
64595;SDS011;51003;51.628;6.670;2023-05-01T08:38:48;6.40;;;3.43;;
64595;SDS011;51003;51.628;6.670;2023-05-01T08:41:14;5.37;;;3.63;;
64595;SDS011;51003;51.628;6.670;2023-05-01T08:43:40;7.00;;;3.70;;
64595;SDS011;51003;51.628;6.670;2023-05-01T08:46:06;3.50;;;3.20;;
64595;SDS011;51003;51.628;6.670;2023-05-01T08:48:33;4.50;;;3.80;;
64595;SDS011;51003;51.628;6.670;2023-05-01T08:50:59;5.03;;;4.17;;
64595;SDS011;51003;51.628;6.670;2023-05-01T08:53:26;6.70;;;3.53;;
64595;SDS011;51003;51.628;6.670;2023-05-01T08:55:52;3.60;;;3.30;;
64595;SDS011;51003;51.628;6.670;2023-05-01T08:58:20;4.03;;;3.70;;
64595;SDS011;51003;51.628;6.670;2023-05-01T09:00:49;4.37;;;3.30;;
64595;SDS011;51003;51.628;6.670;2023-05-01T09:03:14;10.83;;;3.90;;
64595;SDS011;51003;51.628;6.670;2023-05-01T09:05:41;4.60;;;3.70;;
64595;SDS011;51003;51.628;6.670;2023-05-01T09:08:06;3.23;;;3.03;;
64595;SDS011;51003;51.628;6.670;2023-05-01T09:10:32;7.60;;;3.70;;
64595;SDS011;51003;51.628;6.670;2023-05-01T09:13:01;3.93;;;3.50;;
64595;SDS011;51003;51.628;6.670;2023-05-01T09:15:30;4.30;;;3.57;;
64595;SDS011;51003;51.628;6.670;2023-05-01T09:17:56;5.17;;;3.70;;
64595;SDS011;51003;51.628;6.670;2023-05-01T09:20:23;4.50;;;4.00;;
64595;SDS011;51003;51.628;6.670;2023-05-01T09:22:49;4.50;;;3.80;;
64595;SDS011;51003;51.628;6.670;2023-05-01T09:25:15;3.70;;;3.40;;
64595;SDS011;51003;51.628;6.670;2023-05-01T09:27:40;4.13;;;3.73;;
64595;SDS011;51003;51.628;6.670;2023-05-01T09:30:06;6.53;;;5.07;;
64595;SDS011;51003;51.628;6.670;2023-05-01T09:32:33;4.10;;;3.73;;
64595;SDS011;51003;51.628;6.670;2023-05-01T09:35:09;4.43;;;4.10;;
64595;SDS011;51003;51.628;6.670;2023-05-01T09:37:35;4.40;;;4.10;;
64595;SDS011;51003;51.628;6.670;2023-05-01T09:42:33;4.33;;;3.90;;
64595;SDS011;51003;51.628;6.670;2023-05-01T09:45:02;4.53;;;4.23;;
64595;SDS011;51003;51.628;6.670;2023-05-01T09:47:28;6.37;;;3.93;;
64595;SDS011;51003;51.628;6.670;2023-05-01T09:49:55;3.97;;;3.67;;
64595;SDS011;51003;51.628;6.670;2023-05-01T09:52:25;4.70;;;4.30;;
64595;SDS011;51003;51.628;6.670;2023-05-01T09:57:41;4.83;;;4.37;;
64595;SDS011;51003;51.628;6.670;2023-05-01T10:00:09;4.80;;;4.00;;
64595;SDS011;51003;51.628;6.670;2023-05-01T10:02:36;4.40;;;4.00;;
64595;SDS011;51003;51.628;6.670;2023-05-01T10:05:02;4.60;;;4.20;;
64595;SDS011;51003;51.628;6.670;2023-05-01T10:07:28;5.93;;;4.20;;
64595;SDS011;51003;51.628;6.670;2023-05-01T10:09:54;4.53;;;4.20;;
64595;SDS011;51003;51.628;6.670;2023-05-01T10:12:23;3.73;;;3.53;;
64595;SDS011;51003;51.628;6.670;2023-05-01T10:14:50;4.33;;;4.03;;
64595;SDS011;51003;51.628;6.670;2023-05-01T10:17:20;4.40;;;4.00;;
64595;SDS011;51003;51.628;6.670;2023-05-01T10:19:45;4.43;;;4.03;;
64595;SDS011;51003;51.628;6.670;2023-05-01T10:22:12;6.00;;;4.20;;
64595;SDS011;51003;51.628;6.670;2023-05-01T10:24:37;4.60;;;4.27;;
64595;SDS011;51003;51.628;6.670;2023-05-01T10:27:06;4.00;;;3.80;;
64595;SDS011;51003;51.628;6.670;2023-05-01T10:29:36;4.93;;;4.30;;
64595;SDS011;51003;51.628;6.670;2023-05-01T10:32:01;6.87;;;4.40;;
64595;SDS011;51003;51.628;6.670;2023-05-01T10:34:28;6.63;;;4.70;;
64595;SDS011;51003;51.628;6.670;2023-05-01T10:36:56;4.40;;;4.20;;
64595;SDS011;51003;51.628;6.670;2023-05-01T10:39:34;5.00;;;4.60;;
64595;SDS011;51003;51.628;6.670;2023-05-01T10:42:00;4.77;;;4.40;;
64595;SDS011;51003;51.628;6.670;2023-05-01T10:44:27;4.60;;;4.30;;
64595;SDS011;51003;51.628;6.670;2023-05-01T10:46:53;4.80;;;4.40;;
64595;SDS011;51003;51.628;6.670;2023-05-01T10:49:19;4.63;;;4.33;;
64595;SDS011;51003;51.628;6.670;2023-05-01T10:54:23;4.97;;;4.57;;
64595;SDS011;51003;51.628;6.670;2023-05-01T10:56:49;4.70;;;4.40;;
64595;SDS011;51003;51.628;6.670;2023-05-01T10:59:14;5.20;;;4.80;;
64595;SDS011;51003;51.628;6.670;2023-05-01T11:01:40;5.37;;;4.93;;
64595;SDS011;51003;51.628;6.670;2023-05-01T11:07:29;6.50;;;4.50;;
64595;SDS011;51003;51.628;6.670;2023-05-01T11:09:52;5.00;;;4.60;;
64595;SDS011;51003;51.628;6.670;2023-05-01T11:15:24;4.80;;;4.50;;
64595;SDS011;51003;51.628;6.670;2023-05-01T11:17:50;5.30;;;4.80;;
64595;SDS011;51003;51.628;6.670;2023-05-01T11:22:50;4.87;;;4.53;;
64595;SDS011;51003;51.628;6.670;2023-05-01T11:25:24;5.63;;;4.30;;
64595;SDS011;51003;51.628;6.670;2023-05-01T11:27:58;4.47;;;4.07;;
64595;SDS011;51003;51.628;6.670;2023-05-01T11:30:25;5.00;;;4.60;;
64595;SDS011;51003;51.628;6.670;2023-05-01T11:32:50;4.83;;;4.33;;
64595;SDS011;51003;51.628;6.670;2023-05-01T11:35:17;4.30;;;4.00;;
64595;SDS011;51003;51.628;6.670;2023-05-01T11:37:50;4.47;;;3.80;;
64595;SDS011;51003;51.628;6.670;2023-05-01T11:45:28;3.50;;;3.30;;
64595;SDS011;51003;51.628;6.670;2023-05-01T11:47:54;3.47;;;3.27;;
64595;SDS011;51003;51.628;6.670;2023-05-01T11:50:20;3.63;;;3.40;;
64595;SDS011;51003;51.628;6.670;2023-05-01T11:52:49;4.90;;;4.60;;
64595;SDS011;51003;51.628;6.670;2023-05-01T11:55:18;5.23;;;4.80;;
64595;SDS011;51003;51.628;6.670;2023-05-01T11:57:45;4.07;;;3.77;;
64595;SDS011;51003;51.628;6.670;2023-05-01T12:00:15;4.47;;;4.07;;
64595;SDS011;51003;51.628;6.670;2023-05-01T12:02:58;5.07;;;4.67;;
64595;SDS011;51003;51.628;6.670;2023-05-01T12:05:25;3.67;;;3.37;;
64595;SDS011;51003;51.628;6.670;2023-05-01T12:07:51;3.43;;;3.23;;
64595;SDS011;51003;51.628;6.670;2023-05-01T12:10:31;3.10;;;2.90;;
64595;SDS011;51003;51.628;6.670;2023-05-01T12:12:56;3.97;;;2.90;;
64595;SDS011;51003;51.628;6.670;2023-05-01T12:15:22;3.10;;;2.90;;
64595;SDS011;51003;51.628;6.670;2023-05-01T12:17:47;4.23;;;3.43;;
64595;SDS011;51003;51.628;6.670;2023-05-01T12:20:14;3.70;;;3.17;;
64595;SDS011;51003;51.628;6.670;2023-05-01T12:22:49;3.07;;;2.93;;
64595;SDS011;51003;51.628;6.670;2023-05-01T12:25:15;4.17;;;3.87;;
64595;SDS011;51003;51.628;6.670;2023-05-01T12:27:41;4.37;;;3.53;;
64595;SDS011;51003;51.628;6.670;2023-05-01T12:30:10;4.10;;;3.63;;
64595;SDS011;51003;51.628;6.670;2023-05-01T12:32:35;3.30;;;3.10;;
64595;SDS011;51003;51.628;6.670;2023-05-01T12:35:11;3.33;;;3.13;;
64595;SDS011;51003;51.628;6.670;2023-05-01T12:37:38;4.23;;;3.87;;
64595;SDS011;51003;51.628;6.670;2023-05-01T12:40:03;3.40;;;3.10;;
64595;SDS011;51003;51.628;6.670;2023-05-01T12:42:29;4.70;;;3.90;;
64595;SDS011;51003;51.628;6.670;2023-05-01T12:44:59;4.20;;;3.70;;
64595;SDS011;51003;51.628;6.670;2023-05-01T12:47:25;4.13;;;3.53;;
64595;SDS011;51003;51.628;6.670;2023-05-01T12:49:59;5.10;;;3.80;;
64595;SDS011;51003;51.628;6.670;2023-05-01T12:52:26;3.57;;;3.27;;
64595;SDS011;51003;51.628;6.670;2023-05-01T12:55:00;3.80;;;3.50;;
64595;SDS011;51003;51.628;6.670;2023-05-01T12:57:26;3.93;;;3.53;;
64595;SDS011;51003;51.628;6.670;2023-05-01T12:59:57;4.20;;;3.20;;
64595;SDS011;51003;51.628;6.670;2023-05-01T13:02:28;4.00;;;3.30;;
64595;SDS011;51003;51.628;6.670;2023-05-01T13:05:05;3.87;;;3.57;;
64595;SDS011;51003;51.628;6.670;2023-05-01T13:07:31;7.23;;;3.80;;
64595;SDS011;51003;51.628;6.670;2023-05-01T13:09:57;3.27;;;3.00;;
64595;SDS011;51003;51.628;6.670;2023-05-01T13:12:24;3.73;;;2.80;;
64595;SDS011;51003;51.628;6.670;2023-05-01T13:14:50;3.27;;;2.97;;
64595;SDS011;51003;51.628;6.670;2023-05-01T13:19:52;3.50;;;3.10;;
64595;SDS011;51003;51.628;6.670;2023-05-01T13:22:18;5.40;;;3.07;;
64595;SDS011;51003;51.628;6.670;2023-05-01T13:25:01;3.83;;;3.33;;
64595;SDS011;51003;51.628;6.670;2023-05-01T13:27:28;3.43;;;3.03;;
64595;SDS011;51003;51.628;6.670;2023-05-01T13:29:54;4.53;;;2.80;;
64595;SDS011;51003;51.628;6.670;2023-05-01T13:32:21;2.57;;;2.40;;
64595;SDS011;51003;51.628;6.670;2023-05-01T13:34:47;4.40;;;3.07;;
64595;SDS011;51003;51.628;6.670;2023-05-01T13:37:13;3.43;;;2.70;;
64595;SDS011;51003;51.628;6.670;2023-05-01T13:39:40;2.93;;;2.73;;
64595;SDS011;51003;51.628;6.670;2023-05-01T13:42:06;4.30;;;3.17;;
64595;SDS011;51003;51.628;6.670;2023-05-01T13:44:32;3.20;;;2.90;;
64595;SDS011;51003;51.628;6.670;2023-05-01T13:47:07;2.83;;;2.63;;
64595;SDS011;51003;51.628;6.670;2023-05-01T13:49:33;2.90;;;2.43;;
64595;SDS011;51003;51.628;6.670;2023-05-01T13:51:59;2.73;;;2.53;;
64595;SDS011;51003;51.628;6.670;2023-05-01T13:54:24;3.20;;;2.40;;
64595;SDS011;51003;51.628;6.670;2023-05-01T13:56:49;2.70;;;2.50;;
64595;SDS011;51003;51.628;6.670;2023-05-01T13:59:16;2.27;;;2.10;;
64595;SDS011;51003;51.628;6.670;2023-05-01T14:01:42;2.60;;;2.40;;
64595;SDS011;51003;51.628;6.670;2023-05-01T14:04:13;3.10;;;2.90;;
64595;SDS011;51003;51.628;6.670;2023-05-01T14:06:40;3.90;;;3.60;;
64595;SDS011;51003;51.628;6.670;2023-05-01T14:09:07;2.60;;;2.40;;
64595;SDS011;51003;51.628;6.670;2023-05-01T14:11:33;2.70;;;2.30;;
64595;SDS011;51003;51.628;6.670;2023-05-01T14:13:58;2.40;;;2.20;;
64595;SDS011;51003;51.628;6.670;2023-05-01T14:16:25;2.70;;;2.47;;
64595;SDS011;51003;51.628;6.670;2023-05-01T14:18:52;3.27;;;2.00;;
64595;SDS011;51003;51.628;6.670;2023-05-01T14:21:19;2.70;;;2.20;;
64595;SDS011;51003;51.628;6.670;2023-05-01T14:23:46;2.40;;;2.30;;
64595;SDS011;51003;51.628;6.670;2023-05-01T14:26:15;2.70;;;2.50;;
64595;SDS011;51003;51.628;6.670;2023-05-01T14:28:42;2.80;;;2.60;;
64595;SDS011;51003;51.628;6.670;2023-05-01T14:31:08;3.00;;;2.10;;
64595;SDS011;51003;51.628;6.670;2023-05-01T14:33:48;3.20;;;2.27;;
64595;SDS011;51003;51.628;6.670;2023-05-01T14:36:19;2.40;;;2.30;;
64595;SDS011;51003;51.628;6.670;2023-05-01T14:38:44;2.80;;;2.57;;
64595;SDS011;51003;51.628;6.670;2023-05-01T14:41:13;3.00;;;2.73;;
64595;SDS011;51003;51.628;6.670;2023-05-01T14:43:40;3.43;;;3.17;;
64595;SDS011;51003;51.628;6.670;2023-05-01T14:46:06;3.73;;;3.40;;
64595;SDS011;51003;51.628;6.670;2023-05-01T14:48:35;3.80;;;3.50;;
64595;SDS011;51003;51.628;6.670;2023-05-01T14:51:02;4.23;;;3.70;;
64595;SDS011;51003;51.628;6.670;2023-05-01T14:53:30;6.57;;;3.60;;
64595;SDS011;51003;51.628;6.670;2023-05-01T14:55:56;4.03;;;3.63;;
64595;SDS011;51003;51.628;6.670;2023-05-01T14:58:21;6.23;;;3.67;;
64595;SDS011;51003;51.628;6.670;2023-05-01T15:00:47;6.20;;;4.23;;
64595;SDS011;51003;51.628;6.670;2023-05-01T15:03:13;4.23;;;3.83;;
64595;SDS011;51003;51.628;6.670;2023-05-01T15:05:38;4.00;;;3.70;;
64595;SDS011;51003;51.628;6.670;2023-05-01T15:08:05;5.13;;;4.13;;
64595;SDS011;51003;51.628;6.670;2023-05-01T15:10:32;3.97;;;3.57;;
64595;SDS011;51003;51.628;6.670;2023-05-01T15:12:57;5.17;;;4.57;;
64595;SDS011;51003;51.628;6.670;2023-05-01T15:15:24;4.23;;;3.93;;
64595;SDS011;51003;51.628;6.670;2023-05-01T15:17:50;4.10;;;3.70;;
64595;SDS011;51003;51.628;6.670;2023-05-01T15:20:16;4.10;;;3.40;;
64595;SDS011;51003;51.628;6.670;2023-05-01T15:22:41;3.73;;;3.40;;
64595;SDS011;51003;51.628;6.670;2023-05-01T15:25:07;3.63;;;3.33;;
64595;SDS011;51003;51.628;6.670;2023-05-01T15:27:34;3.57;;;3.27;;
64595;SDS011;51003;51.628;6.670;2023-05-01T15:30:00;3.60;;;3.30;;
64595;SDS011;51003;51.628;6.670;2023-05-01T15:32:25;4.03;;;3.60;;
64595;SDS011;51003;51.628;6.670;2023-05-01T15:34:51;3.50;;;3.20;;